createdAt,value
2017-11-04T00:01:40.110Z,61.50
2017-11-04T00:04:07.601Z,61.50
2017-11-04T00:06:35.140Z,61.50
2017-11-04T00:09:04.372Z,61.50
2017-11-04T00:11:31.922Z,61.50
2017-11-04T00:13:59.696Z,61.50
2017-11-04T00:16:27.667Z,61.50
2017-11-04T00:18:55.435Z,61.40
2017-11-04T00:21:24.123Z,61.40
2017-11-04T00:23:51.653Z,61.40
2017-11-04T00:26:19.171Z,61.40
2017-11-04T00:28:46.693Z,61.40
2017-11-04T00:31:15.147Z,61.40
2017-11-04T00:33:42.688Z,61.40
2017-11-04T00:36:11.304Z,61.40
2017-11-04T00:38:39.169Z,61.40
2017-11-04T00:41:07.136Z,61.30
2017-11-04T00:43:35.004Z,61.30
2017-11-04T00:46:02.590Z,61.30
2017-11-04T00:48:31.606Z,61.40
2017-11-04T00:50:59.900Z,61.30
2017-11-04T00:53:28.162Z,61.30
2017-11-04T00:55:58.402Z,61.30
2017-11-04T00:58:25.900Z,61.30
2017-11-04T01:00:53.422Z,61.40
2017-11-04T01:03:20.946Z,61.40
2017-11-04T01:05:48.441Z,61.40
2017-11-04T01:08:17.941Z,61.30
2017-11-04T01:10:45.441Z,61.40
2017-11-04T01:13:12.971Z,61.30
2017-11-04T01:15:40.509Z,61.30
2017-11-04T01:18:08.010Z,61.30
2017-11-04T01:20:35.536Z,62.00
2017-11-04T01:23:03.034Z,61.30
2017-11-04T01:25:32.059Z,61.30
2017-11-04T01:28:00.327Z,61.30
2017-11-04T01:30:28.618Z,61.30
2017-11-04T01:32:56.138Z,61.30
2017-11-04T01:35:23.637Z,61.30
2017-11-04T01:37:51.275Z,61.30
2017-11-04T01:40:18.983Z,61.30
2017-11-04T01:42:46.517Z,61.30
2017-11-04T01:45:14.074Z,61.30
2017-11-04T01:47:41.707Z,61.30
2017-11-04T01:50:10.233Z,61.40
2017-11-04T01:52:38.868Z,61.40
2017-11-04T01:55:07.603Z,61.40
2017-11-04T01:57:36.492Z,61.40
2017-11-04T02:00:04.563Z,61.40
2017-11-04T02:02:32.531Z,61.40
2017-11-04T02:05:00.600Z,61.30
2017-11-04T02:07:28.670Z,61.50
2017-11-04T02:09:56.701Z,61.40
2017-11-04T02:12:25.425Z,61.50
2017-11-04T02:14:53.328Z,61.40
2017-11-04T02:17:22.954Z,61.40
2017-11-04T02:19:52.809Z,61.50
2017-11-04T02:22:20.675Z,61.50
2017-11-04T02:24:48.848Z,61.40
2017-11-04T02:27:16.815Z,61.50
2017-11-04T02:29:44.886Z,61.50
2017-11-04T02:32:12.689Z,61.50
2017-11-04T02:34:42.459Z,61.60
2017-11-04T02:37:10.324Z,61.50
2017-11-04T02:39:38.345Z,61.60
2017-11-04T02:42:05.979Z,61.60
2017-11-04T02:44:33.502Z,61.70
2017-11-04T02:47:01.009Z,61.70
2017-11-04T02:49:28.535Z,61.60
2017-11-04T02:51:56.041Z,61.50
2017-11-04T02:54:24.331Z,61.70
2017-11-04T02:56:52.778Z,61.70
2017-11-04T02:59:20.274Z,61.60
2017-11-04T03:01:47.815Z,61.60
2017-11-04T03:04:16.102Z,61.70
2017-11-04T03:06:43.605Z,61.70
2017-11-04T03:09:11.127Z,61.70
2017-11-04T03:11:39.577Z,61.70
2017-11-04T03:14:07.841Z,61.70
2017-11-04T03:16:35.364Z,61.80
2017-11-04T03:19:02.862Z,62.40
2017-11-04T03:21:31.153Z,61.70
2017-11-04T03:23:59.418Z,61.70
2017-11-04T03:26:27.734Z,61.70
2017-11-04T03:28:55.225Z,61.70
2017-11-04T03:31:22.742Z,61.70
2017-11-04T03:33:50.241Z,61.70
2017-11-04T03:36:17.761Z,61.70
2017-11-04T03:38:45.265Z,61.70
2017-11-04T03:41:12.786Z,61.70
2017-11-04T03:43:40.283Z,62.00
2017-11-04T03:46:08.581Z,61.80
2017-11-04T03:48:36.841Z,61.70
2017-11-04T03:51:05.125Z,61.80
2017-11-04T03:53:33.384Z,61.70
2017-11-04T03:56:01.666Z,61.70
2017-11-04T03:58:29.921Z,61.60
2017-11-04T04:00:57.435Z,61.60
2017-11-04T04:03:24.938Z,61.60
2017-11-04T04:05:52.453Z,61.70
2017-11-04T04:08:19.951Z,61.70
2017-11-04T04:10:47.473Z,61.70
2017-11-04T04:13:14.969Z,61.60
2017-11-04T04:15:42.490Z,61.60
2017-11-04T04:18:09.986Z,61.60
2017-11-04T04:20:39.326Z,61.70
2017-11-04T04:23:06.817Z,61.70
2017-11-04T04:25:34.338Z,61.60
2017-11-04T04:28:01.833Z,61.60
2017-11-04T04:30:31.294Z,61.60
2017-11-04T04:32:58.793Z,61.60
2017-11-04T04:35:26.292Z,61.70
2017-11-04T04:37:54.581Z,61.70
2017-11-04T04:40:22.081Z,61.70
2017-11-04T04:42:50.558Z,61.70
2017-11-04T04:45:18.062Z,61.70
2017-11-04T04:47:46.346Z,61.70
2017-11-04T04:50:13.849Z,61.70
2017-11-04T04:52:42.310Z,61.80
2017-11-04T04:55:09.842Z,61.60
2017-11-04T04:57:37.341Z,61.60
2017-11-04T05:00:04.867Z,61.60
2017-11-04T05:02:32.370Z,61.70
2017-11-04T05:04:59.892Z,61.70
2017-11-04T05:07:28.344Z,61.60
2017-11-04T05:09:55.846Z,61.70
2017-11-04T05:12:23.369Z,61.60
2017-11-04T05:14:50.873Z,61.60
2017-11-04T05:17:18.393Z,61.70
2017-11-04T05:19:45.893Z,61.60
2017-11-04T05:22:13.423Z,61.70
2017-11-04T05:24:40.917Z,61.80
2017-11-04T05:27:08.415Z,61.70
2017-11-04T05:29:35.929Z,61.70
2017-11-04T05:32:03.425Z,61.70
2017-11-04T05:34:30.941Z,61.70
2017-11-04T05:36:58.439Z,61.60
2017-11-04T05:39:25.953Z,61.60
2017-11-04T05:41:53.441Z,61.50
2017-11-04T05:44:20.941Z,61.60
2017-11-04T05:46:48.458Z,61.50
2017-11-04T05:49:16.925Z,61.60
2017-11-04T05:51:45.204Z,61.60
2017-11-04T05:54:13.466Z,61.50
2017-11-04T05:56:41.761Z,61.60
2017-11-04T05:59:09.278Z,61.60
2017-11-04T06:01:36.794Z,61.60
2017-11-04T06:04:04.298Z,61.60
2017-11-04T06:06:33.294Z,61.60
2017-11-04T06:09:01.583Z,61.60
2017-11-04T06:11:30.786Z,61.50
2017-11-04T06:13:58.316Z,61.50
2017-11-04T06:16:25.819Z,61.60
2017-11-04T06:18:53.312Z,61.50
2017-11-04T06:21:20.836Z,61.50
2017-11-04T06:23:48.346Z,61.50
2017-11-04T06:26:16.634Z,61.60
2017-11-04T06:28:44.914Z,61.50
2017-11-04T06:31:13.173Z,61.50
2017-11-04T06:33:41.457Z,62.10
2017-11-04T06:36:09.718Z,61.60
2017-11-04T06:38:38.001Z,61.50
2017-11-04T06:41:06.262Z,62.30
2017-11-04T06:43:33.758Z,61.60
2017-11-04T06:46:01.277Z,61.50
2017-11-04T06:48:28.794Z,61.50
2017-11-04T06:50:56.330Z,62.20
2017-11-04T06:53:23.830Z,61.50
2017-11-04T06:55:51.359Z,61.50
2017-11-04T06:58:18.852Z,61.60
2017-11-04T07:00:46.346Z,61.50
2017-11-04T07:03:14.633Z,61.50
2017-11-04T07:05:42.141Z,61.50
2017-11-04T07:08:09.662Z,61.50
2017-11-04T07:10:37.163Z,61.50
2017-11-04T07:13:04.661Z,61.50
2017-11-04T07:15:32.178Z,61.50
2017-11-04T07:17:59.682Z,61.50
2017-11-04T07:20:27.201Z,61.50
2017-11-04T07:22:55.485Z,61.50
2017-11-04T07:25:23.769Z,61.50
2017-11-04T07:27:52.025Z,61.50
2017-11-04T07:30:19.541Z,61.50
2017-11-04T07:32:47.033Z,61.50
2017-11-04T07:35:14.534Z,61.50
2017-11-04T07:37:44.041Z,61.50
2017-11-04T07:40:11.537Z,61.50
2017-11-04T07:42:39.054Z,61.50
2017-11-04T07:45:06.551Z,61.50
2017-11-04T07:47:34.050Z,61.50
2017-11-04T07:50:02.335Z,61.50
2017-11-04T07:52:30.806Z,61.50
2017-11-04T07:54:59.094Z,61.50
2017-11-04T07:57:27.545Z,61.50
2017-11-04T07:59:55.809Z,61.50
2017-11-04T08:02:23.344Z,61.40
2017-11-04T08:04:50.845Z,61.70
2017-11-04T08:07:19.137Z,61.40
2017-11-04T08:09:46.630Z,61.40
2017-11-04T08:12:14.140Z,61.40
2017-11-04T08:14:41.662Z,61.40
2017-11-04T08:17:09.157Z,61.50
2017-11-04T08:19:36.691Z,61.40
2017-11-04T08:22:04.958Z,60.90
2017-11-04T08:24:32.454Z,61.40
2017-11-04T08:26:59.973Z,61.40
2017-11-04T08:29:28.431Z,61.40
2017-11-04T08:31:55.951Z,61.50
2017-11-04T08:34:23.462Z,61.40
2017-11-04T08:36:52.682Z,61.40
2017-11-04T08:39:20.966Z,61.40
2017-11-04T08:41:48.469Z,61.40
2017-11-04T08:44:17.934Z,61.30
2017-11-04T08:46:45.442Z,61.30
2017-11-04T08:49:12.943Z,61.30
2017-11-04T08:51:40.466Z,61.40
2017-11-04T08:54:09.677Z,61.40
2017-11-04T08:56:37.969Z,61.40
2017-11-04T08:59:06.233Z,61.50
2017-11-04T09:01:34.498Z,61.30
2017-11-04T09:04:03.801Z,61.80
2017-11-04T09:06:32.066Z,61.40
2017-11-04T09:08:59.583Z,61.40
2017-11-04T09:11:27.077Z,61.00
2017-11-04T09:13:54.607Z,61.50
2017-11-04T09:16:22.105Z,61.40
2017-11-04T09:18:50.394Z,61.50
2017-11-04T09:21:17.941Z,61.50
2017-11-04T09:23:46.202Z,61.40
2017-11-04T09:26:14.631Z,61.40
2017-11-04T09:28:42.318Z,61.40
2017-11-04T09:31:09.838Z,61.40
2017-11-04T09:33:39.114Z,60.80
2017-11-04T09:36:07.374Z,61.40
2017-11-04T09:38:34.894Z,61.40
2017-11-04T09:41:02.389Z,61.40
2017-11-04T09:43:30.670Z,61.40
2017-11-04T09:45:59.895Z,61.40
2017-11-04T09:48:28.350Z,61.40
2017-11-04T09:50:56.613Z,61.40
2017-11-04T09:53:26.090Z,61.40
2017-11-04T09:55:54.543Z,61.40
2017-11-04T09:58:22.054Z,61.40
2017-11-04T10:00:52.323Z,61.50
2017-11-04T10:03:19.829Z,61.40
2017-11-04T10:05:47.343Z,61.60
2017-11-04T10:08:14.846Z,61.40
2017-11-04T10:10:43.134Z,61.60
2017-11-04T10:13:11.413Z,61.40
2017-11-04T10:15:39.673Z,61.40
2017-11-04T10:18:07.962Z,62.00
2017-11-04T10:20:36.250Z,61.40
2017-11-04T10:23:05.706Z,61.40
2017-11-04T10:25:34.195Z,61.40
2017-11-04T10:28:01.725Z,61.40
2017-11-04T10:30:29.250Z,61.40
2017-11-04T10:32:56.753Z,61.40
2017-11-04T10:35:24.301Z,61.50
2017-11-04T10:37:51.817Z,61.40
2017-11-04T10:40:19.314Z,61.40
2017-11-04T10:42:47.159Z,61.50
2017-11-04T10:45:14.724Z,61.50
2017-11-04T10:47:42.400Z,61.50
2017-11-04T10:50:09.963Z,61.50
2017-11-04T10:52:37.917Z,61.50
2017-11-04T10:55:06.225Z,62.30
2017-11-04T10:57:33.746Z,61.50
2017-11-04T11:00:01.266Z,61.50
2017-11-04T11:02:29.530Z,61.60
2017-11-04T11:04:57.802Z,61.60
2017-11-04T11:07:26.086Z,61.50
2017-11-04T11:09:54.345Z,61.50
2017-11-04T11:12:21.867Z,61.40
2017-11-04T11:14:49.371Z,61.40
2017-11-04T11:17:17.641Z,61.70
2017-11-04T11:19:47.893Z,61.80
2017-11-04T11:22:15.433Z,61.70
2017-11-04T11:24:43.710Z,61.90
2017-11-04T11:27:12.226Z,61.90
2017-11-04T11:29:39.731Z,62.00
2017-11-04T11:32:08.032Z,61.70
2017-11-04T11:34:36.518Z,61.70
2017-11-04T11:37:04.059Z,61.50
2017-11-04T11:39:32.326Z,61.50
2017-11-04T11:42:00.623Z,61.60
2017-11-04T11:44:28.129Z,61.50
2017-11-04T11:46:55.637Z,61.50
2017-11-04T11:49:23.170Z,61.50
2017-11-04T11:51:51.445Z,61.50
2017-11-04T11:54:19.746Z,61.50
2017-11-04T11:56:47.261Z,61.50
2017-11-04T11:59:14.791Z,61.40
2017-11-04T12:01:44.277Z,61.50
2017-11-04T12:04:11.781Z,61.50
2017-11-04T12:06:40.069Z,61.50
2017-11-04T12:09:09.286Z,61.60
2017-11-04T12:11:36.842Z,61.70
2017-11-04T12:14:04.347Z,61.40
2017-11-04T12:16:32.115Z,61.50
2017-11-04T12:18:59.694Z,61.50
2017-11-04T12:21:28.121Z,60.80
2017-11-04T12:23:55.884Z,61.50
2017-11-04T12:26:23.647Z,61.60
2017-11-04T12:28:51.190Z,61.70
2017-11-04T12:31:18.729Z,61.70
2017-11-04T12:33:47.001Z,61.90
2017-11-04T12:36:15.281Z,61.80
2017-11-04T12:38:43.578Z,61.90
2017-11-04T12:41:13.086Z,61.90
2017-11-04T12:43:40.590Z,62.10
2017-11-04T12:46:08.100Z,61.60
2017-11-04T12:48:35.627Z,61.80
2017-11-04T12:51:03.897Z,61.70
2017-11-04T12:53:32.189Z,61.90
2017-11-04T12:55:59.705Z,61.90
2017-11-04T12:58:27.233Z,62.00
2017-11-04T13:00:54.752Z,61.90
2017-11-04T13:03:23.060Z,61.90
2017-11-04T13:05:51.502Z,61.90
2017-11-04T13:08:19.793Z,61.80
2017-11-04T13:10:47.294Z,61.90
2017-11-04T13:13:14.823Z,61.80
2017-11-04T13:15:42.325Z,62.00
2017-11-04T13:18:09.854Z,61.90
2017-11-04T13:20:37.390Z,62.00
2017-11-04T13:23:04.890Z,62.00
2017-11-04T13:25:32.397Z,62.00
2017-11-04T13:27:59.913Z,62.00
2017-11-04T13:30:28.361Z,62.00
2017-11-04T13:32:55.890Z,62.00
2017-11-04T13:35:23.390Z,62.00
2017-11-04T13:37:50.920Z,62.00
2017-11-04T13:40:18.421Z,62.10
2017-11-04T13:42:45.950Z,62.10
2017-11-04T13:45:13.456Z,62.10
2017-11-04T13:47:42.734Z,62.10
2017-11-04T13:50:10.242Z,62.10
2017-11-04T13:52:38.086Z,62.10
2017-11-04T13:55:06.354Z,62.10
2017-11-04T13:57:34.652Z,62.10
2017-11-04T14:00:02.164Z,62.10
2017-11-04T14:02:29.666Z,62.10
2017-11-04T14:04:57.205Z,62.20
2017-11-04T14:07:25.470Z,62.10
2017-11-04T14:09:53.757Z,62.10
2017-11-04T14:12:22.026Z,62.10
2017-11-04T14:14:50.341Z,62.10
2017-11-04T14:17:17.833Z,62.10
2017-11-04T14:19:45.451Z,62.00
2017-11-04T14:22:13.317Z,61.90
2017-11-04T14:24:42.310Z,62.20
2017-11-04T14:27:10.078Z,62.10
2017-11-04T14:29:37.795Z,62.20
2017-11-04T14:32:05.632Z,62.20
2017-11-04T14:34:33.135Z,62.20
2017-11-04T14:37:01.022Z,62.10
2017-11-04T14:39:28.589Z,62.20
2017-11-04T14:41:57.369Z,62.20
2017-11-04T14:44:25.129Z,62.20
2017-11-04T14:46:52.790Z,62.20
2017-11-04T14:49:20.555Z,62.30
2017-11-04T14:51:48.111Z,62.30
2017-11-04T14:54:15.613Z,62.20
2017-11-04T14:56:43.137Z,62.00
2017-11-04T14:59:10.653Z,62.10
2017-11-04T15:01:38.947Z,62.40
2017-11-04T15:04:07.399Z,62.30
2017-11-04T15:06:37.645Z,62.50
2017-11-04T15:09:05.157Z,62.50
2017-11-04T15:11:32.701Z,62.30
2017-11-04T15:14:00.214Z,62.30
2017-11-04T15:16:27.743Z,62.20
2017-11-04T15:18:55.247Z,62.20
2017-11-04T15:21:22.779Z,62.30
2017-11-04T15:23:50.282Z,62.10
2017-11-04T15:26:17.781Z,62.20
2017-11-04T15:28:45.321Z,62.20
2017-11-04T15:31:13.592Z,63.20
2017-11-04T15:33:41.121Z,62.50
2017-11-04T15:36:08.630Z,62.30
2017-11-04T15:38:38.899Z,62.20
2017-11-04T15:41:06.405Z,62.10
2017-11-04T15:43:34.674Z,62.30
2017-11-04T15:46:04.921Z,62.40
2017-11-04T15:48:32.419Z,62.30
2017-11-04T15:50:59.941Z,62.30
2017-11-04T15:53:27.441Z,62.40
2017-11-04T15:55:54.970Z,62.30
2017-11-04T15:58:22.469Z,62.30
2017-11-04T16:00:49.979Z,62.30
2017-11-04T16:03:17.498Z,62.30
2017-11-04T16:05:45.757Z,62.40
2017-11-04T16:08:13.290Z,62.40
2017-11-04T16:10:40.810Z,62.40
2017-11-04T16:13:08.346Z,62.30
2017-11-04T16:15:36.625Z,62.40
2017-11-04T16:18:04.904Z,62.30
2017-11-04T16:20:33.198Z,62.40
2017-11-04T16:23:00.701Z,62.40
2017-11-04T16:25:28.230Z,62.40
2017-11-04T16:27:56.677Z,62.40
2017-11-04T16:30:24.208Z,62.30
2017-11-04T16:32:51.710Z,62.40
2017-11-04T16:35:19.213Z,62.40
2017-11-04T16:37:47.633Z,62.40
2017-11-04T16:40:15.125Z,62.40
2017-11-04T16:42:42.647Z,62.40
2017-11-04T16:45:10.138Z,62.40
2017-11-04T16:47:37.641Z,62.40
2017-11-04T16:50:05.935Z,62.40
2017-11-04T16:52:33.430Z,62.40
2017-11-04T16:55:00.946Z,62.40
2017-11-04T16:57:28.446Z,62.40
2017-11-04T16:59:55.942Z,62.40
2017-11-04T17:02:24.234Z,62.40
2017-11-04T17:04:51.741Z,62.40
2017-11-04T17:07:19.257Z,62.40
2017-11-04T17:09:46.758Z,62.40
2017-11-04T17:12:14.282Z,62.40
2017-11-04T17:14:41.777Z,62.40
2017-11-04T17:17:09.277Z,62.40
2017-11-04T17:19:36.807Z,62.40
2017-11-04T17:22:04.310Z,62.40
2017-11-04T17:24:31.828Z,62.40
2017-11-04T17:27:01.038Z,62.40
2017-11-04T17:29:30.271Z,62.40
2017-11-04T17:31:57.790Z,62.40
2017-11-04T17:34:26.058Z,62.40
2017-11-04T17:36:56.306Z,62.40
2017-11-04T17:39:23.804Z,62.40
2017-11-04T17:41:51.329Z,62.40
2017-11-04T17:44:18.830Z,62.40
2017-11-04T17:46:46.330Z,62.40
2017-11-04T17:49:13.846Z,62.40
2017-11-04T17:51:42.325Z,62.40
2017-11-04T17:54:09.847Z,62.40
2017-11-04T17:56:37.366Z,62.40
2017-11-04T17:59:05.633Z,62.40
2017-11-04T18:01:33.923Z,62.40
2017-11-04T18:04:01.421Z,62.40
2017-11-04T18:06:28.919Z,62.40
2017-11-04T18:08:57.206Z,62.40
2017-11-04T18:11:25.477Z,63.10
2017-11-04T18:13:53.769Z,62.40
2017-11-04T18:16:21.277Z,62.40
2017-11-04T18:18:50.734Z,62.40
2017-11-04T18:21:18.230Z,62.40
2017-11-04T18:23:45.729Z,62.40
2017-11-04T18:26:14.020Z,62.30
2017-11-04T18:28:41.517Z,62.30
2017-11-04T18:31:09.029Z,62.40
2017-11-04T18:33:36.526Z,62.30
2017-11-04T18:36:04.022Z,62.40
2017-11-04T18:38:32.309Z,62.30
2017-11-04T18:41:00.575Z,62.30
2017-11-04T18:43:28.857Z,62.30
2017-11-04T18:45:57.117Z,62.30
2017-11-04T18:48:25.410Z,62.30
2017-11-04T18:50:53.670Z,62.30
2017-11-04T18:53:21.940Z,62.30
2017-11-04T18:55:50.229Z,62.30
2017-11-04T18:58:18.493Z,62.30
2017-11-04T19:00:46.803Z,62.30
2017-11-04T19:03:14.293Z,62.30
2017-11-04T19:05:41.809Z,62.30
2017-11-04T19:08:09.326Z,62.30
2017-11-04T19:10:36.825Z,62.30
2017-11-04T19:13:06.339Z,62.30
2017-11-04T19:15:33.829Z,62.30
2017-11-04T19:18:01.354Z,62.30
2017-11-04T19:20:28.856Z,62.30
2017-11-04T19:22:56.358Z,62.30
2017-11-04T19:25:23.879Z,62.30
2017-11-04T19:27:51.375Z,62.20
2017-11-04T19:30:18.898Z,62.30
2017-11-04T19:32:47.161Z,62.30
2017-11-04T19:35:14.667Z,62.30
2017-11-04T19:37:42.177Z,62.20
2017-11-04T19:40:09.678Z,62.30
2017-11-04T19:42:37.201Z,62.30
2017-11-04T19:45:05.457Z,62.30
2017-11-04T19:47:32.957Z,62.20
2017-11-04T19:50:00.483Z,62.20
2017-11-04T19:52:28.751Z,62.30
2017-11-04T19:54:56.271Z,62.20
2017-11-04T19:57:23.766Z,62.20
2017-11-04T19:59:51.286Z,62.30
2017-11-04T20:02:18.784Z,62.80
2017-11-04T20:04:47.086Z,62.10
2017-11-04T20:07:14.594Z,62.30
2017-11-04T20:09:42.094Z,62.20
2017-11-04T20:12:10.374Z,62.20
2017-11-04T20:14:37.876Z,62.20
2017-11-04T20:17:05.396Z,62.10
2017-11-04T20:19:33.854Z,62.20
2017-11-04T20:22:02.143Z,62.10
2017-11-04T20:24:31.334Z,62.20
2017-11-04T20:26:59.604Z,62.20
2017-11-04T20:29:27.890Z,62.10
2017-11-04T20:31:55.389Z,62.10
2017-11-04T20:34:22.910Z,62.20
2017-11-04T20:36:50.409Z,62.10
2017-11-04T20:39:17.913Z,62.20
2017-11-04T20:41:45.434Z,62.10
2017-11-04T20:44:12.937Z,62.10
2017-11-04T20:46:42.394Z,62.10
2017-11-04T20:49:09.894Z,62.10
2017-11-04T20:51:37.414Z,62.10
2017-11-04T20:54:04.929Z,62.10
2017-11-04T20:56:32.422Z,62.00
2017-11-04T20:59:01.883Z,62.00
2017-11-04T21:01:29.386Z,62.00
2017-11-04T21:03:56.910Z,62.10
2017-11-04T21:06:24.410Z,62.10
2017-11-04T21:08:52.708Z,62.80
2017-11-04T21:11:20.231Z,62.80
2017-11-04T21:13:47.738Z,62.40
2017-11-04T21:16:15.258Z,62.70
2017-11-04T21:18:43.525Z,62.00
2017-11-04T21:21:11.035Z,62.50
2017-11-04T21:23:38.558Z,62.70
2017-11-04T21:26:06.818Z,62.60
2017-11-04T21:28:37.086Z,62.10
2017-11-04T21:31:04.590Z,62.70
2017-11-04T21:33:32.109Z,62.60
2017-11-04T21:35:59.604Z,62.80
2017-11-04T21:38:27.116Z,62.80
2017-11-04T21:40:54.638Z,62.80
2017-11-04T21:43:22.913Z,62.80
2017-11-04T21:45:51.206Z,62.90
2017-11-04T21:48:18.703Z,62.90
2017-11-04T21:50:48.202Z,62.80
2017-11-04T21:53:16.601Z,62.90
2017-11-04T21:55:44.426Z,62.90
2017-11-04T21:58:12.292Z,62.90
2017-11-04T22:00:40.261Z,62.80
2017-11-04T22:03:09.207Z,62.80
2017-11-04T22:05:36.938Z,62.80
2017-11-04T22:08:04.880Z,62.80
2017-11-04T22:10:32.745Z,62.70
2017-11-04T22:13:02.378Z,62.70
2017-11-04T22:15:30.799Z,63.30
2017-11-04T22:17:58.379Z,62.60
2017-11-04T22:20:27.278Z,62.60
2017-11-04T22:22:55.145Z,62.60
2017-11-04T22:25:23.727Z,62.60
2017-11-04T22:27:51.334Z,62.50
2017-11-04T22:30:18.961Z,62.60
2017-11-04T22:32:46.470Z,62.60
2017-11-04T22:35:14.762Z,62.60
2017-11-04T22:37:42.267Z,62.60
2017-11-04T22:40:09.802Z,62.60
2017-11-04T22:42:37.453Z,62.60
2017-11-04T22:45:04.990Z,62.60
2017-11-04T22:47:33.613Z,62.60
2017-11-04T22:50:02.278Z,62.60
2017-11-04T22:52:31.374Z,62.50
2017-11-04T22:55:00.363Z,63.30
2017-11-04T22:57:28.433Z,62.50
2017-11-04T22:59:57.527Z,62.60
2017-11-04T23:02:25.281Z,62.50
2017-11-04T23:04:54.180Z,62.50
2017-11-04T23:07:22.044Z,62.60
2017-11-04T23:09:50.012Z,62.50
2017-11-04T23:12:17.980Z,62.40
2017-11-04T23:14:45.948Z,62.40
2017-11-04T23:17:14.940Z,62.40
2017-11-04T23:19:42.805Z,62.40
2017-11-04T23:22:10.772Z,62.40
2017-11-04T23:24:38.640Z,62.40
2017-11-04T23:27:06.233Z,62.40
2017-11-04T23:29:34.703Z,62.40
2017-11-04T23:32:03.039Z,62.50
2017-11-04T23:34:30.558Z,62.40
2017-11-04T23:36:58.058Z,62.50
2017-11-04T23:39:25.578Z,62.40
2017-11-04T23:41:54.041Z,62.50
2017-11-04T23:44:21.570Z,62.60
2017-11-04T23:46:49.061Z,62.60
2017-11-04T23:49:16.577Z,62.60
2017-11-04T23:51:44.082Z,62.60
2017-11-04T23:54:12.378Z,62.90
2017-11-04T23:56:40.642Z,62.80
2017-11-04T23:59:08.937Z,62.60
